Bookmark and Share
Track history (hours):
 

Sirius

More information available from US FCC via Universal Licensing System and Coast Guard Vessel Documentation Center.

Last reported at 2014-Apr-11 18:33 UTC. Time now 2014-Apr-16 13:35 UTC.
Position N 41°27' W 070°36'.

Length 22 m; draft 1.9 m.

Type: Towing. MMSI: 367181040.

NotesDate/timePositionNaut miles runAvg speedWind from/ knotsBaromVisibWave heightAir tempDewpointWater temp
2014-Apr-11 18:33N 41°27' W 070°36'2 1.7
2014-Apr-11 17:26N 41°28' W 070°33'4 4.9
2014-Apr-11 16:33N 41°30' W 070°38'5 4.7
2014-Apr-11 15:28N 41°32' W 070°45'7 6.7
2014-Apr-11 14:27N 41°29' W 070°53'6 6.4
2014-Apr-11 13:33N 41°27' W 071°01'7 6.5
2014-Apr-11 12:33N 41°26' W 071°09'5 4.7
2014-Apr-11 11:27N 41°30' W 071°13'6 6.4
2014-Apr-11 10:33N 41°36' W 071°13'3 3.3
2014-Apr-11 09:33N 41°38' W 071°17'6 6.2
2014-Apr-11 08:33N 41°43' W 071°21'6 5.7
2014-Apr-11 07:33N 41°48' W 071°24'1 0.7
2014-Apr-11 06:33N 41°48' W 071°23'8 7.7
2014-Apr-11 05:33N 41°41' W 071°19'5 4.8
2014-Apr-11 04:33N 41°39' W 071°13'8 8.4
2014-Apr-11 03:33N 41°31' W 071°13'6 5.8
2014-Apr-11 02:34N 41°26' W 071°09'7 7.2
2014-Apr-11 01:34N 41°28' W 070°60'7 7.3
2014-Apr-11 00:33N 41°33' W 070°53'6 6.4
2014-Apr-10 23:34N 41°39' W 070°55'4 4.1
2014-Apr-10 22:33N 41°35' W 070°53'6 5.8
2014-Apr-10 21:33N 41°32' W 070°46'5 5.1
2014-Apr-10 20:32N 41°31' W 070°40'4 3.7
2014-Apr-10 19:19N 41°27' W 070°36'0 0.0
2014-Apr-10 18:33N 41°27' W 070°36'0 0.0
2014-Apr-10 17:33N 41°27' W 070°36'2 1.6
2014-Apr-10 16:33N 41°29' W 070°35'5 4.9
2014-Apr-10 15:33N 41°31' W 070°41'10 0.2
2014-Apr-08 19:25N 41°36' W 070°54'5 6.0
2014-Apr-08 18:33N 41°33' W 070°48'7 6.5
2014-Apr-08 17:32N 41°31' W 070°40'5 4.3
2014-Apr-08 16:27N 41°27' W 070°36'4 0.2
2014-Apr-07 23:21N 41°30' W 070°39'6 7.5
2014-Apr-07 22:33N 41°33' W 070°47'9 4.5
2014-Apr-07 20:31N 41°39' W 070°55'6 5.9
2014-Apr-07 19:31N 41°34' W 070°52'12 6.1
2014-Apr-07 17:33N 41°30' W 070°37'2 1.9
2014-Apr-07 16:33N 41°28' W 070°35'7 7.2
2014-Apr-07 15:32N 41°32' W 070°44'7 7.4
2014-Apr-07 14:32N 41°35' W 070°53'4 4.4
2014-Apr-07 13:33N 41°39' W 070°55'5 0.9
2014-Apr-07 08:10N 41°35' W 070°53'5 7.4
2014-Apr-07 07:34N 41°33' W 070°47'7 7.0
2014-Apr-07 06:34N 41°30' W 070°38'4 3.6
2014-Apr-07 05:33N 41°27' W 070°36'  
2014-Apr-05 01:18N 41°27' W 070°36'6 6.4
2014-Apr-05 00:27N 41°31' W 070°41'7 8.0
2014-Apr-04 23:33N 41°33' W 070°50'2 1.2
2014-Apr-04 21:27N 41°35' W 070°53'7 7.2
2014-Apr-04 20:30N 41°32' W 070°44'8 6.5
2014-Apr-04 19:18N 41°28' W 070°36'3 0.1
2014-Apr-03 16:14N 41°30' W 070°38'16 2.2
2014-Apr-03 09:11N 41°39' W 070°55'0 0.0
2014-Apr-03 08:27N 41°39' W 070°55'6 7.0
2014-Apr-03 07:33N 41°33' W 070°51'10 8.1
2014-Apr-03 06:22N 41°31' W 070°39'3 0.1
2014-Apr-02 02:25N 41°29' W 070°36'10 7.4
2014-Apr-02 01:05N 41°33' W 070°48'  

Dump ship's entire track history

sailing weather and tide predictions

Sirius — WDA2145 — position and weather